createdAt,value
2018-04-15T00:00:36.626Z,1007.2
2018-04-15T00:01:38.365Z,1007.2
2018-04-15T00:02:40.039Z,1007.3
2018-04-15T00:03:42.448Z,1007.3
2018-04-15T00:04:44.163Z,1007.2
2018-04-15T00:05:46.065Z,1007.3
2018-04-15T00:06:47.837Z,1007.3
2018-04-15T00:07:49.490Z,1007.3
2018-04-15T00:08:51.166Z,1007.2
2018-04-15T00:09:52.917Z,1007.2
2018-04-15T00:10:54.574Z,1007.2
2018-04-15T00:11:56.261Z,1007.2
2018-04-15T00:12:58.002Z,1007.2
2018-04-15T00:13:59.716Z,1007.2
2018-04-15T00:15:01.507Z,1007.2
2018-04-15T00:16:03.247Z,1007.2
2018-04-15T00:17:05.160Z,1007.2
2018-04-15T00:18:06.822Z,1007.2
2018-04-15T00:19:08.732Z,1007.1
2018-04-15T00:20:10.482Z,1007.2
2018-04-15T00:21:12.175Z,1007.1
2018-04-15T00:22:13.891Z,1007.1
2018-04-15T00:23:15.629Z,1007.1
2018-04-15T00:24:17.490Z,1007.1
2018-04-15T00:25:19.238Z,1007.1
2018-04-15T00:26:20.932Z,1007.1
2018-04-15T00:27:22.632Z,1007.1
2018-04-15T00:28:24.563Z,1007.0
2018-04-15T00:29:26.433Z,1007.1
2018-04-15T00:30:28.172Z,1007.0
2018-04-15T00:31:29.928Z,1007.0
2018-04-15T00:32:31.609Z,1007.0
2018-04-15T00:33:33.320Z,1007.0
2018-04-15T00:34:35.048Z,1006.9
2018-04-15T00:35:36.765Z,1006.9
2018-04-15T00:36:38.589Z,1007.0
2018-04-15T00:37:40.337Z,1006.9
2018-04-15T00:38:42.116Z,1007.0
2018-04-15T00:39:43.929Z,1007.0
2018-04-15T00:40:45.607Z,1006.9
2018-04-15T00:41:47.349Z,1007.0
2018-04-15T00:42:49.245Z,1007.0
2018-04-15T00:43:51.012Z,1007.0
2018-04-15T00:44:52.821Z,1007.0
2018-04-15T00:45:54.763Z,1007.2
2018-04-15T00:46:56.560Z,1007.3
2018-04-15T00:47:58.255Z,1007.2
2018-04-15T00:49:00.072Z,1007.3
2018-04-15T00:50:01.875Z,1007.3
2018-04-15T00:51:03.683Z,1007.3
2018-04-15T00:52:05.347Z,1007.3
2018-04-15T00:53:07.128Z,1007.3
2018-04-15T00:54:08.852Z,1007.3
2018-04-15T00:55:10.623Z,1007.3
2018-04-15T00:56:12.375Z,1007.3
2018-04-15T00:57:14.261Z,1007.3
2018-04-15T00:58:16.019Z,1007.2
2018-04-15T00:59:17.780Z,1007.3
2018-04-15T01:00:19.573Z,1007.3
2018-04-15T01:01:21.321Z,1007.3
2018-04-15T01:02:23.104Z,1007.3
2018-04-15T01:03:24.863Z,1007.3
2018-04-15T01:04:26.828Z,1007.3
2018-04-15T01:05:28.623Z,1007.3
2018-04-15T01:06:30.371Z,1007.3
2018-04-15T01:07:32.053Z,1007.3
2018-04-15T01:08:33.794Z,1007.3
2018-04-15T01:09:35.521Z,1007.2
2018-04-15T01:10:37.188Z,1007.2
2018-04-15T01:11:38.888Z,1007.2
2018-04-15T01:12:40.698Z,1007.2
2018-04-15T01:13:42.299Z,1007.2
2018-04-15T01:14:44.069Z,1007.1
2018-04-15T01:15:45.840Z,1007.1
2018-04-15T01:16:47.812Z,1007.1
2018-04-15T01:17:49.613Z,1007.1
2018-04-15T01:18:51.324Z,1007.1
2018-04-15T01:19:53.017Z,1007.0
2018-04-15T01:20:54.785Z,1007.0
2018-04-15T01:21:56.558Z,1007.0
2018-04-15T01:22:58.399Z,1007.1
2018-04-15T01:24:00.190Z,1007.0
2018-04-15T01:25:01.920Z,1007.0
2018-04-15T01:26:03.616Z,1007.0
2018-04-15T01:27:05.335Z,1006.9
2018-04-15T01:28:07.261Z,1006.9
2018-04-15T01:29:08.976Z,1006.9
2018-04-15T01:30:10.722Z,1006.9
2018-04-15T01:31:12.444Z,1006.9
2018-04-15T01:32:14.169Z,1006.9
2018-04-15T01:33:15.953Z,1006.9
2018-04-15T01:34:17.698Z,1006.9
2018-04-15T01:35:19.443Z,1006.9
2018-04-15T01:36:21.248Z,1006.9
2018-04-15T01:37:23.024Z,1006.9
2018-04-15T01:38:24.762Z,1006.9
2018-04-15T01:39:26.526Z,1006.9
2018-04-15T01:40:28.259Z,1006.9
2018-04-15T01:41:29.973Z,1006.9
2018-04-15T01:42:31.740Z,1006.8
2018-04-15T01:43:33.455Z,1006.8
2018-04-15T01:44:35.192Z,1006.8
2018-04-15T01:45:37.135Z,1006.8
2018-04-15T01:46:39.110Z,1006.8
2018-04-15T01:47:40.855Z,1006.8
2018-04-15T01:48:42.558Z,1006.8
2018-04-15T01:49:44.318Z,1006.8
2018-04-15T01:50:46.232Z,1006.8
2018-04-15T01:51:47.881Z,1006.8
2018-04-15T01:52:49.740Z,1006.9
2018-04-15T01:53:51.513Z,1006.9
2018-04-15T01:54:53.286Z,1006.8
2018-04-15T01:55:55.039Z,1006.9
2018-04-15T01:56:56.806Z,1006.8
2018-04-15T01:57:58.546Z,1006.8
2018-04-15T01:59:00.314Z,1006.8
2018-04-15T02:00:02.053Z,1006.8
2018-04-15T02:01:03.709Z,1006.7
2018-04-15T02:02:05.639Z,1006.7
2018-04-15T02:03:07.371Z,1006.8
2018-04-15T02:04:09.164Z,1006.7
2018-04-15T02:05:10.964Z,1006.7
2018-04-15T02:06:12.684Z,1006.7
2018-04-15T02:07:14.447Z,1006.7
2018-04-15T02:08:16.291Z,1006.7
2018-04-15T02:09:18.082Z,1006.7
2018-04-15T02:10:19.828Z,1006.7
2018-04-15T02:11:21.604Z,1006.7
2018-04-15T02:12:23.354Z,1006.7
2018-04-15T02:13:25.188Z,1006.7
2018-04-15T02:14:26.921Z,1006.7
2018-04-15T02:15:28.850Z,1006.7
2018-04-15T02:16:30.809Z,1006.7
2018-04-15T02:17:32.520Z,1006.6
2018-04-15T02:18:34.297Z,1006.6
2018-04-15T02:19:36.236Z,1006.6
2018-04-15T02:20:38.185Z,1006.6
2018-04-15T02:21:40.106Z,1006.6
2018-04-15T02:22:41.906Z,1006.6
2018-04-15T02:23:43.734Z,1006.6
2018-04-15T02:24:45.808Z,1006.7
2018-04-15T02:25:47.591Z,1006.7
2018-04-15T02:26:49.313Z,1006.6
2018-04-15T02:27:51.057Z,1006.7
2018-04-15T02:28:52.747Z,1006.7
2018-04-15T02:29:54.513Z,1006.7
2018-04-15T02:30:56.533Z,1006.7
2018-04-15T02:31:58.273Z,1006.7
2018-04-15T02:32:59.971Z,1006.7
2018-04-15T02:34:01.799Z,1006.7
2018-04-15T02:35:03.482Z,1006.6
2018-04-15T02:36:05.182Z,1006.6
2018-04-15T02:37:06.967Z,1006.6
2018-04-15T02:38:09.092Z,1006.6
2018-04-15T02:39:11.239Z,1006.6
2018-04-15T02:40:13.252Z,1006.6
2018-04-15T02:41:14.986Z,1006.6
2018-04-15T02:42:16.728Z,1006.6
2018-04-15T02:43:18.410Z,1006.6
2018-04-15T02:44:20.125Z,1006.5
2018-04-15T02:45:21.850Z,1006.6
2018-04-15T02:46:23.689Z,1006.6
2018-04-15T02:47:25.377Z,1006.5
2018-04-15T02:48:27.081Z,1006.6
2018-04-15T02:49:28.816Z,1006.6
2018-04-15T02:50:30.712Z,1006.5
2018-04-15T02:51:32.537Z,1006.6
2018-04-15T02:52:34.256Z,1006.6
2018-04-15T02:53:35.995Z,1006.6
2018-04-15T02:54:37.780Z,1006.6
2018-04-15T02:55:39.463Z,1006.6
2018-04-15T02:56:41.208Z,1006.6
2018-04-15T02:57:42.907Z,1006.5
2018-04-15T02:58:44.748Z,1006.5
2018-04-15T02:59:46.669Z,1006.6
2018-04-15T03:00:48.344Z,1006.6
2018-04-15T03:01:50.071Z,1006.6
2018-04-15T03:02:51.768Z,1006.6
2018-04-15T03:03:53.441Z,1006.6
2018-04-15T03:04:55.343Z,1006.6
2018-04-15T03:05:56.993Z,1006.5
2018-04-15T03:06:58.990Z,1006.6
2018-04-15T03:08:00.685Z,1006.6
2018-04-15T03:09:02.535Z,1006.6
2018-04-15T03:10:04.361Z,1006.6
2018-04-15T03:11:05.980Z,1006.6
2018-04-15T03:12:07.764Z,1006.6
2018-04-15T03:13:09.510Z,1006.6
2018-04-15T03:14:11.382Z,1006.6
2018-04-15T03:15:13.158Z,1006.6
2018-04-15T03:16:15.004Z,1006.6
2018-04-15T03:17:16.704Z,1006.5
2018-04-15T03:18:18.384Z,1006.6
2018-04-15T03:19:20.267Z,1006.6
2018-04-15T03:20:22.044Z,1006.6
2018-04-15T03:21:23.723Z,1006.6
2018-04-15T03:22:25.405Z,1006.6
2018-04-15T03:23:27.030Z,1006.6
2018-04-15T03:24:28.699Z,1006.6
2018-04-15T03:25:30.439Z,1006.5
2018-04-15T03:26:32.229Z,1006.5
2018-04-15T03:27:33.841Z,1006.6
2018-04-15T03:28:35.598Z,1006.5
2018-04-15T03:29:37.283Z,1006.5
2018-04-15T03:30:39.026Z,1006.5
2018-04-15T03:31:40.787Z,1006.5
2018-04-15T03:32:42.422Z,1006.5
2018-04-15T03:33:44.152Z,1006.5
2018-04-15T03:34:46.020Z,1006.5
2018-04-15T03:35:47.660Z,1006.5
2018-04-15T03:36:49.359Z,1006.5
2018-04-15T03:37:50.985Z,1006.5
2018-04-15T03:38:52.738Z,1006.5
2018-04-15T03:39:54.396Z,1006.5
2018-04-15T03:40:56.058Z,1006.5
2018-04-15T03:41:57.775Z,1006.5
2018-04-15T03:42:59.471Z,1006.5
2018-04-15T03:44:01.170Z,1006.5
2018-04-15T03:45:02.967Z,1006.4
2018-04-15T03:46:04.759Z,1006.4
2018-04-15T03:47:06.499Z,1006.5
2018-04-15T03:48:08.258Z,1006.5
2018-04-15T03:49:09.929Z,1006.5
2018-04-15T03:50:11.703Z,1006.4
2018-04-15T03:51:13.439Z,1006.5
2018-04-15T03:52:15.189Z,1006.4
2018-04-15T03:53:16.850Z,1006.4
2018-04-15T03:54:18.454Z,1006.4
2018-04-15T03:55:20.101Z,1006.4
2018-04-15T03:56:21.816Z,1006.4
2018-04-15T03:57:23.566Z,1006.4
2018-04-15T03:58:25.310Z,1006.3
2018-04-15T03:59:27.043Z,1006.3
2018-04-15T04:00:28.697Z,1006.4
2018-04-15T04:01:30.383Z,1006.3
2018-04-15T04:02:32.043Z,1006.4
2018-04-15T04:03:33.841Z,1006.4
2018-04-15T04:04:35.543Z,1006.4
2018-04-15T04:05:37.267Z,1006.4
2018-04-15T04:06:39.020Z,1006.4
2018-04-15T04:07:40.711Z,1006.4
2018-04-15T04:08:42.416Z,1006.4
2018-04-15T04:09:44.094Z,1006.4
2018-04-15T04:10:45.921Z,1006.4
2018-04-15T04:11:47.662Z,1006.4
2018-04-15T04:12:49.427Z,1006.4
2018-04-15T04:13:51.174Z,1006.3
2018-04-15T04:14:52.949Z,1006.4
2018-04-15T04:15:54.794Z,1006.4
2018-04-15T04:16:56.468Z,1006.4
2018-04-15T04:17:58.166Z,1006.4
2018-04-15T04:18:59.929Z,1006.4
2018-04-15T04:20:01.532Z,1006.4
2018-04-15T04:21:03.386Z,1006.4
2018-04-15T04:22:05.213Z,1006.4
2018-04-15T04:23:06.852Z,1006.4
2018-04-15T04:24:08.894Z,1006.4
2018-04-15T04:25:10.792Z,1006.4
2018-04-15T04:26:12.415Z,1006.4
2018-04-15T04:27:14.130Z,1006.4
2018-04-15T04:28:15.859Z,1006.4
2018-04-15T04:29:17.594Z,1006.3
2018-04-15T04:30:19.354Z,1006.4
2018-04-15T04:31:21.186Z,1006.3
2018-04-15T04:32:22.995Z,1006.4
2018-04-15T04:33:24.690Z,1006.4
2018-04-15T04:34:26.467Z,1006.4
2018-04-15T04:35:28.213Z,1006.4
2018-04-15T04:36:30.065Z,1006.4
2018-04-15T04:37:31.931Z,1006.4
2018-04-15T04:38:33.649Z,1006.4
2018-04-15T04:39:35.524Z,1006.4
2018-04-15T04:40:37.201Z,1006.4
2018-04-15T04:41:39.154Z,1006.4
2018-04-15T04:42:40.839Z,1006.3
2018-04-15T04:43:42.568Z,1006.4
2018-04-15T04:44:44.299Z,1006.3
2018-04-15T04:45:45.902Z,1006.4
2018-04-15T04:46:47.869Z,1006.3
2018-04-15T04:47:49.686Z,1006.3
2018-04-15T04:48:51.355Z,1006.3
2018-04-15T04:49:53.076Z,1006.3
2018-04-15T04:50:54.785Z,1006.3
2018-04-15T04:51:56.708Z,1006.3
2018-04-15T04:52:58.424Z,1006.3
2018-04-15T04:54:00.186Z,1006.3
2018-04-15T04:55:01.957Z,1006.3
2018-04-15T04:56:03.704Z,1006.4
2018-04-15T04:57:05.343Z,1006.4
2018-04-15T04:58:07.109Z,1006.4
2018-04-15T04:59:08.807Z,1006.4
2018-04-15T05:00:10.621Z,1006.4
2018-04-15T05:01:12.327Z,1006.5
2018-04-15T05:02:14.033Z,1006.5
2018-04-15T05:03:15.753Z,1006.4
2018-04-15T05:04:17.420Z,1006.5
2018-04-15T05:05:19.352Z,1006.5
2018-04-15T05:06:21.060Z,1006.4
2018-04-15T05:07:22.788Z,1006.4
2018-04-15T05:08:24.490Z,1006.4
2018-04-15T05:09:26.344Z,1006.4
2018-04-15T05:10:28.065Z,1006.4
2018-04-15T05:11:30.120Z,1006.4
2018-04-15T05:12:32.249Z,1006.4
2018-04-15T05:13:34.076Z,1006.4
2018-04-15T05:14:35.981Z,1006.4
2018-04-15T05:15:37.816Z,1006.5
2018-04-15T05:16:39.754Z,1006.5
2018-04-15T05:17:41.377Z,1006.5
2018-04-15T05:18:43.348Z,1006.5
2018-04-15T05:19:45.209Z,1006.4
2018-04-15T05:20:47.031Z,1006.4
2018-04-15T05:21:49.210Z,1006.4
2018-04-15T05:22:50.988Z,1006.4
2018-04-15T05:23:52.813Z,1006.4
2018-04-15T05:24:54.570Z,1006.4
2018-04-15T05:25:56.311Z,1006.3
2018-04-15T05:26:58.172Z,1006.3
2018-04-15T05:27:59.986Z,1006.3
2018-04-15T05:29:01.971Z,1006.3
2018-04-15T05:30:03.759Z,1006.3
2018-04-15T05:31:05.513Z,1006.3
2018-04-15T05:32:07.169Z,1006.3
2018-04-15T05:33:09.044Z,1006.3
2018-04-15T05:34:10.832Z,1006.3
2018-04-15T05:35:12.738Z,1006.4
2018-04-15T05:36:14.663Z,1006.4
2018-04-15T05:37:16.572Z,1006.3
2018-04-15T05:38:18.581Z,1006.4
2018-04-15T05:39:20.340Z,1006.4
2018-04-15T05:40:22.083Z,1006.4
2018-04-15T05:41:23.904Z,1006.4
2018-04-15T05:42:25.616Z,1006.4
2018-04-15T05:43:27.372Z,1006.4
2018-04-15T05:44:29.213Z,1006.4
2018-04-15T05:45:31.031Z,1006.5
2018-04-15T05:46:32.772Z,1006.4
2018-04-15T05:47:34.579Z,1006.5
2018-04-15T05:48:36.252Z,1006.5
2018-04-15T05:49:38.201Z,1006.5
2018-04-15T05:50:40.116Z,1006.5
2018-04-15T05:51:41.828Z,1006.5
2018-04-15T05:52:43.620Z,1006.5
2018-04-15T05:53:45.675Z,1006.5
2018-04-15T05:54:47.698Z,1006.5
2018-04-15T05:55:49.366Z,1006.5
2018-04-15T05:56:51.302Z,1006.5
2018-04-15T05:57:53.097Z,1006.5
2018-04-15T05:58:55.181Z,1006.6
2018-04-15T05:59:57.039Z,1006.5
2018-04-15T06:00:58.848Z,1006.5
2018-04-15T06:02:00.807Z,1006.5
2018-04-15T06:03:02.914Z,1006.5
2018-04-15T06:04:04.827Z,1006.5
2018-04-15T06:05:06.784Z,1006.5
2018-04-15T06:06:08.590Z,1006.4
2018-04-15T06:07:10.332Z,1006.4
2018-04-15T06:08:12.100Z,1006.4
2018-04-15T06:09:13.831Z,1006.4
2018-04-15T06:10:15.546Z,1006.3
2018-04-15T06:11:17.252Z,1006.4
2018-04-15T06:12:18.980Z,1006.4
2018-04-15T06:13:20.663Z,1006.4
2018-04-15T06:14:22.766Z,1006.4
2018-04-15T06:15:24.551Z,1006.4
2018-04-15T06:16:26.350Z,1006.4
2018-04-15T06:17:28.132Z,1006.3
2018-04-15T06:18:29.969Z,1006.3
2018-04-15T06:19:31.734Z,1006.4
2018-04-15T06:20:33.470Z,1006.3
2018-04-15T06:21:35.218Z,1006.3
2018-04-15T06:22:37.188Z,1006.3
2018-04-15T06:23:39.151Z,1006.3
2018-04-15T06:24:40.999Z,1006.3
2018-04-15T06:25:42.797Z,1006.2
2018-04-15T06:26:44.859Z,1006.2
2018-04-15T06:27:46.663Z,1006.2
2018-04-15T06:28:48.403Z,1006.2
2018-04-15T06:29:50.419Z,1006.2
2018-04-15T06:30:52.313Z,1006.1
2018-04-15T06:31:54.236Z,1006.1
2018-04-15T06:32:56.151Z,1006.1
2018-04-15T06:33:57.906Z,1006.1
2018-04-15T06:34:59.673Z,1006.1
2018-04-15T06:36:01.328Z,1006.1
2018-04-15T06:37:03.344Z,1006.1
2018-04-15T06:38:05.310Z,1006.1
2018-04-15T06:39:07.065Z,1006.0
2018-04-15T06:40:09.238Z,1006.0
2018-04-15T06:41:10.973Z,1006.0
2018-04-15T06:42:12.641Z,1006.0
2018-04-15T06:43:14.652Z,1006.0
2018-04-15T06:44:16.502Z,1006.0
2018-04-15T06:45:18.251Z,1006.0
2018-04-15T06:46:20.010Z,1005.9
2018-04-15T06:47:21.783Z,1005.9
2018-04-15T06:48:23.622Z,1005.9
2018-04-15T06:49:25.349Z,1005.9
2018-04-15T06:50:27.125Z,1005.9
2018-04-15T06:51:29.046Z,1005.9
2018-04-15T06:52:31.087Z,1005.9
2018-04-15T06:53:32.970Z,1005.9
2018-04-15T06:54:34.982Z,1005.9
2018-04-15T06:55:36.728Z,1005.8
2018-04-15T06:56:38.637Z,1005.8
2018-04-15T06:57:40.601Z,1005.8
2018-04-15T06:58:43.344Z,1005.8
2018-04-15T06:59:45.593Z,1005.8
2018-04-15T07:00:47.608Z,1005.8
2018-04-15T07:01:49.499Z,1005.7
2018-04-15T07:02:51.450Z,1005.8
2018-04-15T07:03:53.389Z,1005.7
2018-04-15T07:04:55.284Z,1005.7
2018-04-15T07:05:57.100Z,1005.7
2018-04-15T07:06:58.884Z,1005.7
2018-04-15T07:08:00.761Z,1005.7
2018-04-15T07:09:03.008Z,1005.7
2018-04-15T07:10:04.804Z,1005.7
2018-04-15T07:11:06.584Z,1005.7
2018-04-15T07:12:08.377Z,1005.7
2018-04-15T07:13:10.105Z,1005.6
2018-04-15T07:14:11.987Z,1005.6
2018-04-15T07:15:13.696Z,1005.6
2018-04-15T07:16:15.402Z,1005.5
2018-04-15T07:17:17.093Z,1005.6
2018-04-15T07:18:18.858Z,1005.5
2018-04-15T07:19:20.592Z,1005.4
2018-04-15T07:20:22.279Z,1005.5
2018-04-15T07:21:24.039Z,1005.4
2018-04-15T07:22:25.759Z,1005.4
2018-04-15T07:23:27.597Z,1005.4
2018-04-15T07:24:29.309Z,1005.4
2018-04-15T07:25:31.109Z,1005.4
2018-04-15T07:26:32.843Z,1005.4
2018-04-15T07:27:34.652Z,1005.4
2018-04-15T07:28:36.357Z,1005.4
2018-04-15T07:29:38.130Z,1005.4
2018-04-15T07:30:39.805Z,1005.4
2018-04-15T07:31:41.490Z,1005.3
2018-04-15T07:32:43.186Z,1005.3
2018-04-15T07:33:45.077Z,1005.3
2018-04-15T07:34:46.745Z,1005.3
2018-04-15T07:35:48.549Z,1005.4
2018-04-15T07:36:50.339Z,1005.3
2018-04-15T07:37:52.129Z,1005.3
2018-04-15T07:38:53.936Z,1005.3
2018-04-15T07:39:55.673Z,1005.3
2018-04-15T07:40:57.350Z,1005.2
2018-04-15T07:41:59.118Z,1005.3
2018-04-15T07:43:00.930Z,1005.3
2018-04-15T07:44:02.577Z,1005.2
2018-04-15T07:45:04.385Z,1005.2
2018-04-15T07:46:06.195Z,1005.2
2018-04-15T07:47:07.825Z,1005.3
2018-04-15T07:48:09.595Z,1005.2
2018-04-15T07:49:11.333Z,1005.2
2018-04-15T07:50:12.984Z,1005.2
2018-04-15T07:51:14.939Z,1005.2
2018-04-15T07:52:16.639Z,1005.2
2018-04-15T07:53:18.446Z,1005.2
2018-04-15T07:54:20.132Z,1005.2
2018-04-15T07:55:21.859Z,1005.2
2018-04-15T07:56:23.606Z,1005.2
2018-04-15T07:57:25.779Z,1005.2
2018-04-15T07:58:27.830Z,1005.2
2018-04-15T07:59:29.578Z,1005.1
2018-04-15T08:00:31.335Z,1005.1
2018-04-15T08:01:33.007Z,1005.2
2018-04-15T08:02:34.809Z,1005.2
2018-04-15T08:03:36.452Z,1005.2
2018-04-15T08:04:38.211Z,1005.2
2018-04-15T08:05:39.971Z,1005.2
2018-04-15T08:06:41.718Z,1005.1
2018-04-15T08:07:43.482Z,1005.1
2018-04-15T08:08:45.129Z,1005.1
2018-04-15T08:09:46.784Z,1005.1
2018-04-15T08:10:48.516Z,1005.1
2018-04-15T08:11:50.256Z,1005.1
2018-04-15T08:12:51.957Z,1005.1
2018-04-15T08:13:53.715Z,1005.1
2018-04-15T08:14:55.434Z,1005.1
2018-04-15T08:15:57.248Z,1005.1
2018-04-15T08:16:59.052Z,1005.1
2018-04-15T08:18:00.834Z,1005.1
2018-04-15T08:19:02.485Z,1005.0
2018-04-15T08:20:04.308Z,1005.0
2018-04-15T08:21:06.039Z,1005.0
2018-04-15T08:22:07.773Z,1005.1
2018-04-15T08:23:09.461Z,1005.1
2018-04-15T08:24:11.251Z,1005.1
2018-04-15T08:25:13.050Z,1005.1
2018-04-15T08:26:14.867Z,1005.1
2018-04-15T08:27:16.626Z,1005.1
2018-04-15T08:28:18.358Z,1005.2
2018-04-15T08:29:20.150Z,1005.1
2018-04-15T08:30:21.916Z,1005.1
2018-04-15T08:31:23.637Z,1005.1
2018-04-15T08:32:25.375Z,1005.1
2018-04-15T08:33:27.168Z,1005.1
2018-04-15T08:34:28.963Z,1005.1
2018-04-15T08:35:30.852Z,1005.0
2018-04-15T08:36:32.814Z,1005.1
2018-04-15T08:37:34.546Z,1005.1
2018-04-15T08:38:36.320Z,1005.2
2018-04-15T08:39:38.109Z,1005.2
2018-04-15T08:40:39.895Z,1005.2
2018-04-15T08:41:41.655Z,1005.3
2018-04-15T08:42:45.436Z,1005.2
2018-04-15T08:43:47.229Z,1005.2
2018-04-15T08:44:48.920Z,1005.1
2018-04-15T08:45:50.632Z,1005.0
2018-04-15T08:46:52.524Z,1005.1
2018-04-15T08:47:54.137Z,1005.1
2018-04-15T08:48:55.849Z,1005.2
2018-04-15T08:49:57.337Z,1005.2
2018-04-15T08:50:59.036Z,1005.2
2018-04-15T08:52:00.616Z,1005.3
2018-04-15T08:53:02.336Z,1005.3
2018-04-15T08:54:04.796Z,1005.2
2018-04-15T08:55:06.492Z,1005.2
2018-04-15T08:56:08.668Z,1005.2
2018-04-15T08:57:10.449Z,1005.2
2018-04-15T08:58:12.249Z,1005.4
2018-04-15T08:59:14.327Z,1006.5
2018-04-15T09:00:16.078Z,1006.3
2018-04-15T09:01:18.172Z,1005.3
2018-04-15T09:02:19.921Z,1005.3
2018-04-15T09:03:22.042Z,1005.3
2018-04-15T09:04:23.724Z,1005.3
2018-04-15T09:05:25.533Z,1005.3
2018-04-15T09:06:27.236Z,1005.3
2018-04-15T09:07:29.051Z,1005.3
2018-04-15T09:08:30.748Z,1005.2
2018-04-15T09:09:33.392Z,1005.5
2018-04-15T09:10:35.936Z,1005.2
2018-04-15T09:11:37.880Z,1005.5
2018-04-15T09:12:39.620Z,1005.3
2018-04-15T09:13:41.431Z,1005.3
2018-04-15T09:14:43.217Z,1005.4
2018-04-15T09:15:45.007Z,1005.3
2018-04-15T09:16:47.089Z,1005.5
2018-04-15T09:17:48.816Z,1005.4
2018-04-15T09:18:50.535Z,1005.1
2018-04-15T09:19:52.294Z,1005.1
2018-04-15T09:20:54.134Z,1005.8
2018-04-15T09:21:55.843Z,1005.5
2018-04-15T09:22:57.695Z,1005.5
2018-04-15T09:23:59.393Z,1005.3
2018-04-15T09:25:01.333Z,1004.9
2018-04-15T09:26:03.165Z,1004.8
2018-04-15T09:27:05.036Z,1004.8
2018-04-15T09:28:07.370Z,1004.9
2018-04-15T09:29:09.180Z,1005.3
2018-04-15T09:30:10.941Z,1005.2
2018-04-15T09:31:12.739Z,1005.4
2018-04-15T09:32:14.613Z,1005.8
2018-04-15T09:33:16.533Z,1005.8
2018-04-15T09:34:18.272Z,1005.7
2018-04-15T09:35:20.519Z,1005.5
2018-04-15T09:36:22.750Z,1005.6
2018-04-15T09:37:25.207Z,1004.9
2018-04-15T09:38:27.028Z,1004.8
2018-04-15T09:39:29.516Z,1005.5
2018-04-15T09:40:31.182Z,1005.5
2018-04-15T09:41:32.855Z,1005.5
2018-04-15T09:42:34.969Z,1005.4
2018-04-15T09:43:36.756Z,1005.4
2018-04-15T09:44:38.424Z,1005.4
2018-04-15T09:45:40.940Z,1005.3
2018-04-15T09:46:42.835Z,1005.3
2018-04-15T09:47:44.587Z,1005.2
2018-04-15T09:48:46.971Z,1005.2
2018-04-15T09:49:49.350Z,1005.3
2018-04-15T09:50:51.052Z,1005.4
2018-04-15T09:51:52.756Z,1004.9
2018-04-15T09:52:55.387Z,1005.4
2018-04-15T09:53:57.068Z,1005.3
2018-04-15T09:54:58.944Z,1005.4
2018-04-15T09:56:00.942Z,1005.4
2018-04-15T09:57:02.757Z,1004.7
2018-04-15T09:58:04.624Z,1005.4
2018-04-15T09:59:06.453Z,1005.3
2018-04-15T10:00:08.258Z,1005.2
2018-04-15T10:01:10.813Z,1004.7
2018-04-15T10:02:12.430Z,1004.6
2018-04-15T10:03:14.249Z,1005.2
2018-04-15T10:04:16.102Z,1004.6
2018-04-15T10:05:17.821Z,1005.1
2018-04-15T10:06:19.613Z,1005.4
2018-04-15T10:07:21.283Z,1004.8
2018-04-15T10:08:23.600Z,1004.8
2018-04-15T10:09:25.339Z,1004.6
2018-04-15T10:10:27.087Z,1004.5
2018-04-15T10:11:29.215Z,1004.6
2018-04-15T10:12:31.437Z,1004.5
2018-04-15T10:13:33.268Z,1004.5
2018-04-15T10:14:34.964Z,1005.1
2018-04-15T10:15:37.505Z,1005.1
2018-04-15T10:16:39.199Z,1005.1
2018-04-15T10:17:40.975Z,1005.1
2018-04-15T10:18:42.759Z,1005.2
2018-04-15T10:19:45.347Z,1005.0
2018-04-15T10:20:47.548Z,1004.8
2018-04-15T10:21:49.272Z,1004.7
2018-04-15T10:22:51.057Z,1004.7
2018-04-15T10:23:52.847Z,1004.8
2018-04-15T10:24:54.600Z,1004.7
2018-04-15T10:25:56.376Z,1004.7
2018-04-15T10:26:58.156Z,1004.7
2018-04-15T10:27:59.917Z,1004.7
2018-04-15T10:29:01.621Z,1004.8
2018-04-15T10:30:03.376Z,1004.7
2018-04-15T10:31:05.539Z,1004.8
2018-04-15T10:32:07.440Z,1004.8
2018-04-15T10:33:09.268Z,1004.8
2018-04-15T10:34:11.077Z,1004.8
2018-04-15T10:35:12.773Z,1004.8
2018-04-15T10:36:14.558Z,1004.8
2018-04-15T10:37:16.422Z,1004.6
2018-04-15T10:38:18.216Z,1004.6
2018-04-15T10:39:19.992Z,1004.5
2018-04-15T10:40:21.886Z,1004.9
2018-04-15T10:41:23.673Z,1004.9
2018-04-15T10:42:25.482Z,1004.8
2018-04-15T10:43:27.328Z,1004.8
2018-04-15T10:44:29.197Z,1004.6
2018-04-15T10:45:30.984Z,1004.6
2018-04-15T10:46:32.906Z,1004.6
2018-04-15T10:47:34.626Z,1004.6
2018-04-15T10:48:36.272Z,1004.6
2018-04-15T10:49:38.121Z,1004.6
2018-04-15T10:50:39.789Z,1004.6
2018-04-15T10:51:41.608Z,1004.5
2018-04-15T10:52:43.428Z,1004.5
2018-04-15T10:53:45.223Z,1004.5
2018-04-15T10:54:46.995Z,1004.5
2018-04-15T10:55:48.760Z,1004.5
2018-04-15T10:56:50.533Z,1004.6
2018-04-15T10:57:52.313Z,1004.6
2018-04-15T10:58:54.193Z,1004.5
2018-04-15T10:59:55.978Z,1004.4
2018-04-15T11:00:57.706Z,1004.5
2018-04-15T11:01:59.478Z,1004.5
2018-04-15T11:03:01.168Z,1004.6
2018-04-15T11:04:02.966Z,1004.6
2018-04-15T11:05:04.808Z,1004.5
2018-04-15T11:06:06.554Z,1004.5
2018-04-15T11:07:08.307Z,1004.5
2018-04-15T11:08:10.101Z,1004.5
2018-04-15T11:09:11.903Z,1004.4
2018-04-15T11:10:13.653Z,1004.4
2018-04-15T11:11:15.523Z,1004.4
2018-04-15T11:12:17.227Z,1004.3
2018-04-15T11:13:19.053Z,1004.4
2018-04-15T11:14:20.856Z,1004.3
2018-04-15T11:15:22.622Z,1004.1
2018-04-15T11:16:24.441Z,1004.4
2018-04-15T11:17:26.262Z,1004.3
2018-04-15T11:18:27.981Z,1004.0
2018-04-15T11:19:29.705Z,1004.3
2018-04-15T11:20:31.483Z,1004.3
2018-04-15T11:21:33.323Z,1004.2
2018-04-15T11:22:35.050Z,1004.2
2018-04-15T11:23:36.814Z,1004.2
2018-04-15T11:24:38.685Z,1004.2
2018-04-15T11:25:40.506Z,1004.0
2018-04-15T11:26:42.345Z,1004.0
2018-04-15T11:27:44.138Z,1004.1
2018-04-15T11:28:45.893Z,1004.3
2018-04-15T11:29:47.640Z,1004.3
2018-04-15T11:30:49.418Z,1004.2
2018-04-15T11:31:51.232Z,1004.2
2018-04-15T11:32:52.993Z,1004.2
2018-04-15T11:33:54.817Z,1004.1
2018-04-15T11:34:56.575Z,1004.1
2018-04-15T11:35:58.404Z,1004.1
2018-04-15T11:37:00.241Z,1004.1
2018-04-15T11:38:02.100Z,1004.1
2018-04-15T11:39:03.883Z,1004.1
2018-04-15T11:40:05.596Z,1004.2
2018-04-15T11:41:07.462Z,1004.2
2018-04-15T11:42:09.401Z,1004.2
2018-04-15T11:43:11.196Z,1004.2
2018-04-15T11:44:13.088Z,1004.1
2018-04-15T11:45:15.020Z,1004.1
2018-04-15T11:46:16.778Z,1003.9
2018-04-15T11:47:18.640Z,1003.9
2018-04-15T11:48:20.415Z,1004.2
2018-04-15T11:49:22.202Z,1004.1
2018-04-15T11:50:24.074Z,1004.2
2018-04-15T11:51:25.947Z,1004.1
2018-04-15T11:52:27.684Z,1004.1
2018-04-15T11:53:29.434Z,1004.1
2018-04-15T11:54:31.301Z,1004.1
2018-04-15T11:55:33.167Z,1004.1
2018-04-15T11:56:34.924Z,1003.8
2018-04-15T11:57:36.707Z,1003.8
2018-04-15T11:58:38.472Z,1004.0
2018-04-15T11:59:40.268Z,1004.0
2018-04-15T12:00:42.871Z,1004.0
2018-04-15T12:01:44.788Z,1004.0
2018-04-15T12:02:46.668Z,1003.9
2018-04-15T12:03:48.654Z,1004.0
2018-04-15T12:04:50.438Z,1004.0
2018-04-15T12:05:52.273Z,1004.0
2018-04-15T12:06:54.075Z,1004.0
2018-04-15T12:07:55.823Z,1004.0
2018-04-15T12:08:57.648Z,1004.0
2018-04-15T12:09:59.422Z,1004.0
2018-04-15T12:11:01.259Z,1004.0
2018-04-15T12:12:03.092Z,1004.0
2018-04-15T12:13:04.880Z,1004.0
2018-04-15T12:14:06.635Z,1004.0
2018-04-15T12:15:08.407Z,1004.0
2018-04-15T12:16:10.205Z,1004.0
2018-04-15T12:17:12.032Z,1004.0
2018-04-15T12:18:13.871Z,1004.0
2018-04-15T12:19:15.674Z,1004.0
2018-04-15T12:20:17.367Z,1004.1
2018-04-15T12:21:19.219Z,1004.0
2018-04-15T12:22:21.296Z,1004.0
2018-04-15T12:23:23.189Z,1004.0
2018-04-15T12:24:24.952Z,1003.8
2018-04-15T12:25:26.712Z,1003.7
2018-04-15T12:26:28.533Z,1003.7
2018-04-15T12:27:30.251Z,1003.9
2018-04-15T12:28:32.005Z,1003.8
2018-04-15T12:29:33.969Z,1003.9
2018-04-15T12:30:35.816Z,1003.9
2018-04-15T12:31:37.695Z,1004.0
2018-04-15T12:32:39.513Z,1003.9
2018-04-15T12:33:41.406Z,1004.0
2018-04-15T12:34:43.275Z,1003.9
2018-04-15T12:35:45.239Z,1003.8
2018-04-15T12:36:47.103Z,1003.9
2018-04-15T12:37:49.099Z,1003.8
2018-04-15T12:38:50.866Z,1003.7
2018-04-15T12:39:52.677Z,1003.7
2018-04-15T12:40:54.714Z,1003.5
2018-04-15T12:41:56.476Z,1003.5
2018-04-15T12:42:58.283Z,1003.5
2018-04-15T12:44:00.103Z,1003.6
2018-04-15T12:45:02.005Z,1003.5
2018-04-15T12:46:03.915Z,1003.6
2018-04-15T12:47:05.755Z,1003.6
2018-04-15T12:48:07.601Z,1003.7
2018-04-15T12:49:09.361Z,1003.7
2018-04-15T12:50:11.100Z,1003.6
2018-04-15T12:51:12.921Z,1003.5